Time;durP1;ratioP1;P1;durP2;ratioP2;P2;SDS_P1;SDS_P2;PMS_P1;PMS_P2;Temp;Humidity;BMP_temperature;BMP_pressure;BME280_temperature;BME280_humidity;BME280_pressure;Samples;Min_cycle;Max_cycle;Signal;HPM_P1;HPM_P2
2024/02/01 00:02:45;;;;;;;13.38;6.88;;;8.20;82.10;;;;;;9188835;19;20011;-71
2024/02/01 00:05:51;;;;;;;14.23;6.25;;;8.10;82.10;;;;;;9188527;19;20058;-72
2024/02/01 00:08:58;;;;;;;13.18;6.85;;;8.10;82.10;;;;;;9186223;19;20052;-72
2024/02/01 00:12:04;;;;;;;11.98;6.00;;;8.10;82.10;;;;;;9185787;19;20018;-70
2024/02/01 00:15:13;;;;;;;12.35;6.57;;;8.10;82.10;;;;;;9188640;19;20035;-72
2024/02/01 00:18:21;;;;;;;11.85;6.55;;;8.00;82.30;;;;;;9185502;19;20018;-69
2024/02/01 00:21:29;;;;;;;17.90;7.30;;;8.00;82.20;;;;;;9182022;19;20401;-68
2024/02/01 00:24:34;;;;;;;16.20;6.95;;;8.00;82.30;;;;;;9185654;19;20011;-70
2024/02/01 00:27:42;;;;;;;15.77;7.05;;;8.10;82.50;;;;;;9184796;19;20030;-70
2024/02/01 00:30:47;;;;;;;20.52;7.57;;;8.10;82.50;;;;;;9183760;19;20456;-71
2024/02/01 00:33:58;;;;;;;16.35;7.70;;;8.10;82.60;;;;;;9179997;19;20041;-72
2024/02/01 00:37:04;;;;;;;16.88;7.15;;;8.00;82.60;;;;;;9182572;19;20497;-71
2024/02/01 00:40:13;;;;;;;15.15;6.50;;;8.10;82.70;;;;;;9180415;19;20011;-69
2024/02/01 00:43:18;;;;;;;11.73;6.95;;;8.10;82.70;;;;;;9179084;19;20011;-72
2024/02/01 00:46:26;;;;;;;20.33;8.07;;;8.00;82.70;;;;;;9179788;19;20022;-71
2024/02/01 00:49:34;;;;;;;12.00;6.65;;;8.10;82.80;;;;;;9182845;19;20385;-71
2024/02/01 00:52:42;;;;;;;12.32;7.40;;;8.20;83.00;;;;;;9181871;19;20014;-72
2024/02/01 00:55:48;;;;;;;15.93;7.68;;;8.20;83.00;;;;;;9180103;19;20026;-68
2024/02/01 00:58:55;;;;;;;16.00;7.30;;;8.10;83.10;;;;;;9181612;19;20026;-72
2024/02/01 01:02:01;;;;;;;10.65;6.85;;;8.10;83.10;;;;;;9178280;19;20025;-70
2024/02/01 01:05:12;;;;;;;15.90;7.50;;;8.20;83.80;;;;;;9182829;19;20022;-71
2024/02/01 01:08:17;;;;;;;14.52;7.72;;;8.10;83.20;;;;;;9178326;19;20111;-70
2024/02/01 01:11:25;;;;;;;12.20;7.05;;;8.20;83.30;;;;;;9180103;19;20022;-70
2024/02/01 01:14:31;;;;;;;16.15;8.48;;;8.20;83.40;;;;;;9177802;19;20010;-69
2024/02/01 01:17:39;;;;;;;12.13;7.45;;;8.20;83.30;;;;;;9180219;19;20014;-70
2024/02/01 01:20:47;;;;;;;11.50;7.40;;;8.20;83.50;;;;;;9179737;19;20642;-71
2024/02/01 01:23:55;;;;;;;12.05;7.30;;;8.20;83.50;;;;;;9176161;19;20029;-70
2024/02/01 01:27:01;;;;;;;23.35;7.80;;;8.20;83.70;;;;;;9181957;19;20041;-70
2024/02/01 01:30:10;;;;;;;13.50;7.53;;;8.30;83.90;;;;;;9183050;19;20018;-71
2024/02/01 01:33:16;;;;;;;12.48;7.05;;;8.30;83.80;;;;;;9186441;19;20093;-70
2024/02/01 01:36:26;;;;;;;12.32;8.35;;;8.30;84.00;;;;;;9181078;19;20017;-69
2024/02/01 01:39:33;;;;;;;14.93;8.15;;;8.40;84.10;;;;;;9181443;19;20026;-71
2024/02/01 01:42:40;;;;;;;14.55;7.30;;;8.40;84.10;;;;;;9182944;19;20014;-71
2024/02/01 01:45:46;;;;;;;12.85;7.30;;;8.40;84.10;;;;;;9184109;19;20021;-71
2024/02/01 01:48:54;;;;;;;11.48;7.60;;;8.50;84.20;;;;;;9185413;19;20557;-70
2024/02/01 01:52:02;;;;;;;11.52;7.72;;;8.50;84.30;;;;;;9186122;19;20043;-71
2024/02/01 01:55:15;;;;;;;9.90;7.37;;;8.50;84.20;;;;;;9182742;19;20025;-70
2024/02/01 01:58:21;;;;;;;10.52;7.05;;;8.50;84.30;;;;;;9186298;19;20014;-70
2024/02/01 02:01:30;;;;;;;14.02;7.30;;;8.60;84.30;;;;;;9185153;19;20112;-72
2024/02/01 02:04:35;;;;;;;12.52;7.10;;;8.60;84.30;;;;;;9186801;19;20082;-73
2024/02/01 02:07:45;;;;;;;10.73;6.43;;;8.60;84.40;;;;;;9183364;19;20018;-70
2024/02/01 02:10:52;;;;;;;9.90;7.18;;;8.70;84.40;;;;;;9186004;19;20021;-70
2024/02/01 02:13:59;;;;;;;10.23;6.40;;;8.80;84.50;;;;;;9185222;19;20480;-69
2024/02/01 02:17:05;;;;;;;9.27;6.80;;;8.70;84.50;;;;;;9187351;19;20381;-73
2024/02/01 02:20:19;;;;;;;11.27;7.43;;;8.70;84.60;;;;;;9186715;19;20029;-70
2024/02/01 02:23:29;;;;;;;12.95;7.47;;;8.70;84.60;;;;;;9180109;19;20030;-70
2024/02/01 02:26:36;;;;;;;15.57;7.15;;;8.80;84.70;;;;;;9183034;19;20014;-73
2024/02/01 02:29:42;;;;;;;12.10;7.30;;;8.80;84.80;;;;;;9187578;19;20022;-71
2024/02/01 02:32:50;;;;;;;12.52;7.35;;;8.80;84.70;;;;;;9184019;19;20460;-71
2024/02/01 02:35:56;;;;;;;11.82;6.78;;;8.90;84.80;;;;;;9193324;19;20401;-70
2024/02/01 02:39:09;;;;;;;15.07;7.60;;;8.90;85.00;;;;;;9186939;19;20185;-72
2024/02/01 02:42:15;;;;;;;14.75;7.07;;;9.00;85.10;;;;;;9186585;19;20009;-70
2024/02/01 02:45:27;;;;;;;15.27;6.63;;;9.00;85.00;;;;;;9185348;19;20429;-71
2024/02/01 02:48:34;;;;;;;20.30;7.10;;;9.00;85.00;;;;;;9182501;19;20022;-71
2024/02/01 02:51:41;;;;;;;16.55;7.45;;;9.00;85.00;;;;;;9188043;19;20420;-72
2024/02/01 02:54:50;;;;;;;15.85;6.55;;;9.10;85.40;;;;;;9185979;19;20384;-71
2024/02/01 02:57:57;;;;;;;15.27;6.20;;;9.10;85.30;;;;;;9188033;19;20014;-69
2024/02/01 03:01:05;;;;;;;13.20;5.15;;;9.20;85.20;;;;;;9183568;19;20015;-72
2024/02/01 03:04:13;;;;;;;27.38;4.97;;;9.20;85.40;;;;;;9184653;19;20015;-71
2024/02/01 03:07:19;;;;;;;22.05;4.90;;;9.20;85.30;;;;;;9184305;19;20018;-70
2024/02/01 03:10:29;;;;;;;22.13;4.38;;;9.30;85.40;;;;;;9181190;19;20019;-72
2024/02/01 03:13:35;;;;;;;25.65;3.95;;;9.20;85.40;;;;;;9184581;19;20014;-70
2024/02/01 03:16:43;;;;;;;29.48;4.45;;;9.20;85.40;;;;;;9182992;19;20027;-71
2024/02/01 03:19:50;;;;;;;27.80;3.90;;;9.20;85.50;;;;;;9186031;19;20060;-72
2024/02/01 03:22:58;;;;;;;33.30;4.72;;;9.20;85.40;;;;;;9179234;19;20026;-69
2024/02/01 03:26:10;;;;;;;20.02;3.63;;;9.30;85.50;;;;;;9182943;19;20041;-71
2024/02/01 03:29:16;;;;;;;17.27;4.72;;;9.30;85.40;;;;;;9195073;19;20048;-71
2024/02/01 03:32:29;;;;;;;22.98;5.70;;;9.20;85.50;;;;;;9193541;19;20028;-68
2024/02/01 03:35:36;;;;;;;20.42;2.92;;;9.30;85.20;;;;;;9187076;19;20015;-71
2024/02/01 03:38:44;;;;;;;13.98;3.13;;;9.30;85.10;;;;;;9194546;19;20114;-71
2024/02/01 03:41:52;;;;;;;18.52;3.00;;;9.30;85.10;;;;;;9192860;19;20040;-69
2024/02/01 03:45:00;;;;;;;24.02;4.30;;;9.30;85.20;;;;;;9185921;19;20025;-68
2024/02/01 03:48:08;;;;;;;20.67;4.10;;;9.20;85.00;;;;;;9188947;19;20056;-70
2024/02/01 03:51:17;;;;;;;28.48;3.38;;;9.20;85.20;;;;;;9189413;19;20014;-70
2024/02/01 03:54:23;;;;;;;15.68;2.97;;;9.20;85.10;;;;;;9189141;19;20022;-72
2024/02/01 03:57:33;;;;;;;20.08;2.58;;;9.30;85.30;;;;;;9190541;19;20017;-71
2024/02/01 04:00:39;;;;;;;19.73;3.25;;;9.10;85.00;;;;;;9190703;19;20011;-70
2024/02/01 04:03:46;;;;;;;34.42;3.63;;;9.20;85.00;;;;;;9191511;19;20010;-72
2024/02/01 04:06:53;;;;;;;18.42;2.92;;;9.20;85.10;;;;;;9191934;19;20102;-70
2024/02/01 04:10:00;;;;;;;19.40;3.50;;;9.00;84.80;;;;;;9193954;19;20037;-70
2024/02/01 04:13:10;;;;;;;31.02;4.15;;;9.00;85.00;;;;;;9193681;19;20028;-70
2024/02/01 04:16:19;;;;;;;21.08;4.05;;;8.90;84.80;;;;;;9188896;19;20090;-71
2024/02/01 04:19:24;;;;;;;22.83;3.30;;;8.90;84.80;;;;;;9190181;19;20015;-70
2024/02/01 04:22:32;;;;;;;37.78;4.00;;;8.90;84.70;;;;;;9192882;19;20015;-72
2024/02/01 04:25:39;;;;;;;24.00;2.83;;;8.90;84.70;;;;;;9187319;19;20018;-70
2024/02/01 04:28:51;;;;;;;24.92;3.72;;;8.90;84.70;;;;;;9189981;19;20022;-69
2024/02/01 04:31:58;;;;;;;23.17;5.03;;;8.80;85.20;;;;;;9185874;19;20379;-68
2024/02/01 04:35:06;;;;;;;22.60;2.70;;;8.70;84.60;;;;;;9181751;19;20011;-70
2024/02/01 04:38:12;;;;;;;24.60;3.53;;;8.60;84.60;;;;;;9183706;19;20021;-70
2024/02/01 04:41:19;;;;;;;21.83;3.22;;;8.60;84.50;;;;;;9187421;19;20065;-72
2024/02/01 04:44:28;;;;;;;37.25;3.75;;;8.60;84.40;;;;;;9188838;19;20019;-71
2024/02/01 04:47:36;;;;;;;17.33;2.63;;;8.40;84.30;;;;;;9186020;19;20022;-70
2024/02/01 04:50:42;;;;;;;28.98;2.65;;;8.40;84.90;;;;;;9178007;19;20015;-71
2024/02/01 04:53:50;;;;;;;20.17;4.20;;;8.30;84.30;;;;;;9184999;19;20018;-72
2024/02/01 04:56:55;;;;;;;25.63;3.80;;;8.30;84.30;;;;;;9187545;19;20014;-70
2024/02/01 05:00:13;;;;;;;20.08;2.80;;;8.30;84.20;;;;;;9188270;19;20026;-71
2024/02/01 05:03:21;;;;;;;27.20;3.33;;;8.20;84.10;;;;;;9180899;19;20020;-69
2024/02/01 05:06:37;;;;;;;34.83;3.58;;;8.10;83.90;;;;;;9186530;19;20025;-70
2024/02/01 05:09:44;;;;;;;18.38;3.78;;;8.20;84.20;;;;;;9188827;19;20018;-70
2024/02/01 05:12:53;;;;;;;27.23;4.43;;;8.00;84.70;;;;;;9186390;19;20021;-69
2024/02/01 05:16:02;;;;;;;18.98;2.88;;;7.90;84.00;;;;;;9186724;19;20014;-71
2024/02/01 05:19:10;;;;;;;29.15;3.95;;;7.90;83.90;;;;;;9187848;19;20018;-70
2024/02/01 05:22:16;;;;;;;26.90;3.22;;;7.90;83.90;;;;;;9182381;19;20029;-71
2024/02/01 05:25:25;;;;;;;20.65;2.88;;;7.80;83.90;;;;;;9188769;19;20015;-70
2024/02/01 05:28:33;;;;;;;23.58;3.53;;;7.80;84.00;;;;;;9185472;19;20015;-72
2024/02/01 05:31:47;;;;;;;26.33;4.03;;;7.70;84.20;;;;;;9184942;19;20357;-72
2024/02/01 05:34:53;;;;;;;18.95;3.58;;;7.70;83.90;;;;;;9186340;19;20017;-70
2024/02/01 05:38:05;;;;;;;26.52;3.35;;;7.60;83.80;;;;;;9187040;19;20021;-72
2024/02/01 05:41:11;;;;;;;25.13;3.83;;;7.60;84.20;;;;;;9185581;19;20011;-71
2024/02/01 05:44:20;;;;;;;25.30;4.03;;;7.50;83.90;;;;;;9188774;19;20007;-71
2024/02/01 05:47:28;;;;;;;31.50;3.85;;;7.50;83.90;;;;;;9187374;19;20026;-70
2024/02/01 05:50:35;;;;;;;21.98;2.95;;;7.50;84.00;;;;;;9188765;19;20025;-71
2024/02/01 05:53:41;;;;;;;22.42;3.58;;;7.40;84.00;;;;;;9184501;19;20018;-70
2024/02/01 05:56:49;;;;;;;25.98;3.50;;;7.40;84.10;;;;;;9186121;19;20011;-70
2024/02/01 05:59:55;;;;;;;20.67;2.70;;;7.40;84.10;;;;;;9186009;19;20062;-71
2024/02/01 06:03:07;;;;;;;29.67;4.20;;;7.30;83.80;;;;;;9187730;19;20011;-71
2024/02/01 06:06:13;;;;;;;17.20;2.28;;;7.20;84.00;;;;;;9184685;19;20017;-70
2024/02/01 06:09:21;;;;;;;17.65;3.25;;;7.30;84.20;;;;;;9186558;19;20338;-73
2024/02/01 06:12:27;;;;;;;18.20;3.88;;;7.10;83.80;;;;;;9185769;19;20010;-69
2024/02/01 06:15:39;;;;;;;26.83;3.85;;;7.20;84.00;;;;;;9183870;19;20026;-71
2024/02/01 06:18:47;;;;;;;20.35;2.95;;;7.20;84.00;;;;;;9183884;19;20018;-71
2024/02/01 06:21:55;;;;;;;14.25;2.63;;;7.00;83.80;;;;;;9173405;19;20022;-69
2024/02/01 06:25:01;;;;;;;18.77;3.40;;;7.00;83.80;;;;;;9183003;19;20102;-70
2024/02/01 06:28:10;;;;;;;24.27;4.63;;;6.90;83.80;;;;;;9184505;19;20362;-72
2024/02/01 06:31:16;;;;;;;31.77;4.22;;;6.80;84.50;;;;;;9184019;19;20026;-71
2024/02/01 06:34:38;;;;;;;21.27;3.72;;;6.80;83.80;;;;;;9186982;19;20014;-72
2024/02/01 06:37:51;;;;;;;33.22;4.90;;;6.80;83.80;;;;;;9185361;19;20021;-71
2024/02/01 06:41:17;;;;;;;29.85;3.58;;;6.70;83.70;;;;;;9185912;19;20019;-71
2024/02/01 06:44:31;;;;;;;22.97;3.83;;;6.70;83.80;;;;;;9187946;19;20018;-72
2024/02/01 06:47:46;;;;;;;32.95;4.90;;;6.70;83.70;;;;;;9186519;19;20033;-70
2024/02/01 06:50:57;;;;;;;29.27;4.25;;;6.60;83.80;;;;;;9185330;19;20014;-68
2024/02/01 06:54:28;;;;;;;;;;;6.50;83.70;;;;;;9187132;19;20046;-69
2024/02/01 06:57:44;;;;;;;15.75;3.10;;;6.50;83.70;;;;;;9195602;19;19931;-73
2024/02/01 07:01:03;;;;;;;24.98;2.95;;;6.40;83.70;;;;;;9195450;19;20029;-72
2024/02/01 07:04:21;;;;;;;17.90;2.40;;;6.40;83.70;;;;;;9202366;19;20010;-70
2024/02/01 07:07:39;;;;;;;31.45;3.10;;;6.30;83.60;;;;;;9188178;19;20025;-71
2024/02/01 07:10:47;;;;;;;26.88;3.47;;;6.30;83.70;;;;;;9183331;19;20351;-70
2024/02/01 07:14:08;;;;;;;28.08;3.72;;;6.20;83.60;;;;;;9180403;19;20018;-70
2024/02/01 07:20:50;;;;;;;24.65;3.95;;;6.30;83.80;;;;;;9178489;19;20021;-69
2024/02/01 07:24:17;;;;;;;32.70;4.95;;;6.10;83.70;;;;;;9175556;19;20365;-70
2024/02/01 08:00:48;;;;;;;22.63;3.75;;;5.70;83.50;;;;;;9180011;19;20014;-70
2024/02/01 08:04:12;;;;;;;28.95;3.17;;;5.70;83.60;;;;;;9179783;19;20021;-68
2024/02/01 08:10:38;;;;;;;21.00;3.33;;;5.60;83.50;;;;;;9178997;19;20047;-70
2024/02/01 08:13:51;;;;;;;26.73;3.53;;;5.60;84.30;;;;;;9180870;19;20480;-70
2024/02/01 08:16:56;;;;;;;26.33;4.38;;;5.60;83.70;;;;;;9180142;19;20460;-71
2024/02/01 08:20:14;;;;;;;38.58;3.63;;;5.60;84.50;;;;;;9180495;19;20368;-70
2024/02/01 08:23:23;;;;;;;25.25;4.03;;;5.60;83.80;;;;;;9176738;19;20011;-70
2024/02/01 08:26:37;;;;;;;27.27;3.92;;;5.50;83.80;;;;;;9179999;19;20018;-69
2024/02/01 08:29:45;;;;;;;38.13;3.97;;;5.50;83.80;;;;;;9180174;19;20586;-70
2024/02/01 08:32:53;;;;;;;34.90;3.97;;;5.50;83.90;;;;;;9180286;19;20018;-69
2024/02/01 08:36:00;;;;;;;30.15;3.40;;;5.50;84.00;;;;;;9177397;19;20073;-70
2024/02/01 08:39:11;;;;;;;34.42;7.03;;;5.50;83.90;;;;;;9180511;19;20026;-70
2024/02/01 08:42:17;;;;;;;24.63;3.67;;;5.50;84.00;;;;;;9178495;19;20022;-70
2024/02/01 08:45:28;;;;;;;22.38;3.78;;;5.50;84.10;;;;;;9179015;19;20019;-70
2024/02/01 08:48:34;;;;;;;35.35;4.03;;;5.60;84.20;;;;;;9177098;19;20097;-69
2024/02/01 08:51:43;;;;;;;31.23;3.97;;;5.60;84.30;;;;;;9163677;19;20014;-71
2024/02/01 08:54:49;;;;;;;39.53;5.32;;;5.60;84.30;;;;;;9179985;19;20403;-72
2024/02/01 08:58:08;;;;;;;37.72;4.45;;;5.60;84.50;;;;;;9176216;19;20019;-71
2024/02/01 09:01:24;;;;;;;27.80;3.72;;;5.60;84.50;;;;;;9176138;19;20014;-71
2024/02/01 09:04:32;;;;;;;35.75;3.95;;;5.70;84.60;;;;;;9181288;19;20630;-71
2024/02/01 09:07:41;;;;;;;32.80;3.72;;;5.80;84.70;;;;;;9178961;19;20077;-71
2024/02/01 09:10:57;;;;;;;36.92;4.95;;;5.80;84.80;;;;;;9179758;19;20019;-69
2024/02/01 09:14:03;;;;;;;34.83;5.53;;;5.90;85.00;;;;;;9178067;19;20014;-72
2024/02/01 09:17:13;;;;;;;36.90;4.47;;;6.00;85.30;;;;;;9175285;19;20488;-71
2024/02/01 09:20:22;;;;;;;37.35;4.43;;;6.00;85.10;;;;;;9178853;19;20035;-70
2024/02/01 09:23:29;;;;;;;27.30;3.58;;;6.10;85.10;;;;;;9166678;19;20042;-72
2024/02/01 09:26:35;;;;;;;34.97;4.65;;;6.20;85.20;;;;;;9177789;19;20388;-71
2024/02/01 09:29:44;;;;;;;36.20;7.03;;;6.30;85.20;;;;;;9176899;19;20007;-70
2024/02/01 09:32:53;;;;;;;29.80;5.05;;;6.30;85.80;;;;;;9175765;19;20014;-72
2024/02/01 09:36:04;;;;;;;23.90;3.50;;;6.40;85.30;;;;;;9175859;19;20011;-71
2024/02/01 09:39:11;;;;;;;29.52;5.47;;;6.40;85.00;;;;;;9173658;19;20019;-72
2024/02/01 09:42:21;;;;;;;36.47;4.22;;;6.50;85.10;;;;;;9171773;19;20029;-70
2024/02/01 09:45:31;;;;;;;28.17;3.92;;;6.50;85.10;;;;;;9175459;19;20488;-71
2024/02/01 09:48:43;;;;;;;27.95;4.50;;;6.60;85.20;;;;;;9174948;19;20006;-71
2024/02/01 09:51:49;;;;;;;22.23;5.50;;;6.70;85.10;;;;;;9175925;19;20011;-69
2024/02/01 09:54:57;;;;;;;30.17;4.80;;;6.80;85.20;;;;;;9179025;19;20007;-71
2024/02/01 09:58:02;;;;;;;33.10;4.03;;;6.80;85.40;;;;;;9182092;19;20043;-70
2024/02/01 10:01:12;;;;;;;39.35;4.82;;;6.90;85.30;;;;;;9181164;19;20018;-71
2024/02/01 10:04:21;;;;;;;41.35;5.25;;;7.10;85.40;;;;;;9175760;19;20007;-69
2024/02/01 10:07:31;;;;;;;36.33;5.40;;;7.10;85.30;;;;;;9175686;19;20113;-72
2024/02/01 10:10:38;;;;;;;32.95;5.05;;;7.30;85.40;;;;;;9180519;19;20021;-71
2024/02/01 10:13:45;;;;;;;25.83;4.85;;;7.30;85.30;;;;;;9177903;19;20010;-70
2024/02/01 10:16:51;;;;;;;31.95;4.25;;;7.40;85.60;;;;;;9181426;19;20025;-69
2024/02/01 10:20:02;;;;;;;38.67;5.45;;;7.60;85.40;;;;;;9181786;19;20042;-72
2024/02/01 10:23:09;;;;;;;32.97;5.47;;;7.60;85.30;;;;;;9182184;19;20479;-73
2024/02/01 10:26:25;;;;;;;37.05;4.90;;;7.80;85.40;;;;;;9184731;19;20026;-73
2024/02/01 10:29:31;;;;;;;38.80;4.25;;;7.90;85.20;;;;;;9174870;19;20038;-70
2024/02/01 10:32:42;;;;;;;37.60;5.70;;;8.00;85.10;;;;;;9175683;19;20053;-72
2024/02/01 10:35:52;;;;;;;38.72;6.63;;;8.20;85.20;;;;;;9176865;19;20844;-71
2024/02/01 10:39:02;;;;;;;30.77;4.95;;;8.40;85.20;;;;;;9171311;19;20022;-69
2024/02/01 10:42:12;;;;;;;38.25;3.67;;;8.50;85.10;;;;;;9169107;19;20481;-71
2024/02/01 10:45:20;;;;;;;35.88;5.50;;;8.70;85.10;;;;;;9174378;19;20364;-72
2024/02/01 10:48:29;;;;;;;25.25;4.82;;;8.90;85.10;;;;;;9175387;19;20022;-71
2024/02/01 10:51:41;;;;;;;23.08;3.83;;;9.00;84.90;;;;;;9177933;19;20037;-72
2024/02/01 10:54:47;;;;;;;39.28;4.80;;;9.00;85.30;;;;;;9179673;19;20034;-71
2024/02/01 10:57:59;;;;;;;27.73;5.65;;;9.10;84.60;;;;;;9181009;19;20010;-71
2024/02/01 11:01:05;;;;;;;32.13;4.43;;;9.20;84.60;;;;;;9178687;19;20022;-73
2024/02/01 11:04:14;;;;;;;37.03;4.60;;;9.30;84.50;;;;;;9184120;19;20102;-72
2024/02/01 11:07:26;;;;;;;31.10;3.85;;;9.40;84.40;;;;;;9179013;19;20015;-69
2024/02/01 11:10:35;;;;;;;49.40;4.88;;;9.40;84.40;;;;;;9185457;19;20010;-72
2024/02/01 11:13:41;;;;;;;52.33;5.32;;;9.50;84.20;;;;;;9185603;19;20022;-74
2024/02/01 11:16:50;;;;;;;37.88;4.75;;;9.60;84.20;;;;;;9181911;19;20015;-71
2024/02/01 11:19:57;;;;;;;31.42;4.18;;;9.60;84.00;;;;;;9181614;19;20022;-71
2024/02/01 11:23:11;;;;;;;34.88;5.82;;;9.70;84.10;;;;;;9176209;19;20011;-71
2024/02/01 11:26:18;;;;;;;42.63;5.15;;;9.70;84.10;;;;;;9181020;19;20060;-72
2024/02/01 11:29:27;;;;;;;26.63;3.63;;;9.80;83.70;;;;;;9183791;19;20033;-70
2024/02/01 11:32:33;;;;;;;35.53;4.70;;;9.80;83.60;;;;;;9182607;19;20019;-71
2024/02/01 11:35:43;;;;;;;31.65;4.32;;;9.80;83.60;;;;;;9178941;19;20029;-76
2024/02/01 11:38:54;;;;;;;39.25;6.70;;;9.90;83.80;;;;;;9169435;19;20048;-76
2024/02/01 11:42:03;;;;;;;32.67;5.80;;;9.80;83.40;;;;;;9168725;19;20010;-76
2024/02/01 11:45:12;;;;;;;22.33;3.50;;;9.80;83.40;;;;;;9173010;19;20376;-76
2024/02/01 11:48:19;;;;;;;46.70;5.10;;;9.90;83.20;;;;;;9175441;19;20023;-76
2024/02/01 11:51:26;;;;;;;24.63;4.43;;;9.90;83.20;;;;;;9180339;19;20048;-75
2024/02/01 11:54:37;;;;;;;29.63;4.50;;;9.90;83.20;;;;;;9180194;19;20017;-75
2024/02/01 11:57:47;;;;;;;30.48;5.18;;;9.90;83.10;;;;;;9178191;19;20052;-74
2024/02/01 12:00:56;;;;;;;26.77;3.80;;;9.90;82.90;;;;;;9181850;19;20025;-78
2024/02/01 12:04:17;;;;;;;35.28;4.47;;;10.00;83.10;;;;;;9177288;19;20026;-78
2024/02/01 12:07:32;;;;;;;24.90;3.70;;;10.00;83.00;;;;;;9174664;19;20007;-75
2024/02/01 12:10:45;;;;;;;36.40;5.03;;;9.90;83.00;;;;;;9178459;19;20022;-77
2024/02/01 12:13:56;;;;;;;32.65;4.38;;;9.80;82.60;;;;;;9179665;19;20017;-75
2024/02/01 12:17:06;;;;;;;26.95;3.58;;;9.90;82.50;;;;;;9176220;19;20010;-75
2024/02/01 12:20:18;;;;;;;35.10;5.15;;;9.80;82.50;;;;;;9175533;19;20535;-73
2024/02/01 12:23:24;;;;;;;31.48;5.05;;;10.00;82.70;;;;;;9172195;19;20014;-77
2024/02/01 12:26:42;;;;;;;26.13;4.85;;;9.80;82.50;;;;;;9177378;19;20006;-74
2024/02/01 12:29:49;;;;;;;35.63;4.15;;;9.80;82.50;;;;;;9178641;19;20025;-75
2024/02/01 12:32:56;;;;;;;29.45;4.55;;;9.70;82.40;;;;;;9177045;19;20014;-74
2024/02/01 12:36:02;;;;;;;31.85;4.32;;;9.70;82.50;;;;;;9175939;19;20115;-76
2024/02/01 12:39:10;;;;;;;27.67;4.45;;;9.70;82.90;;;;;;9176206;19;20856;-76
2024/02/01 12:42:18;;;;;;;41.40;5.10;;;9.70;83.20;;;;;;9175617;19;20018;-76
2024/02/01 12:45:30;;;;;;;35.53;5.15;;;9.70;82.30;;;;;;9178676;19;20030;-77
2024/02/01 12:48:38;;;;;;;26.02;3.72;;;9.70;82.40;;;;;;9177334;19;20022;-77
2024/02/01 12:51:47;;;;;;;37.13;3.67;;;9.80;82.50;;;;;;9176318;19;20014;-77
2024/02/01 12:54:59;;;;;;;27.88;4.80;;;9.60;82.20;;;;;;9177829;19;20496;-77
2024/02/01 12:58:10;;;;;;;30.65;4.95;;;9.60;82.50;;;;;;9171808;19;20014;-76
2024/02/01 13:01:26;;;;;;;27.20;4.15;;;9.70;82.30;;;;;;9175628;19;20018;-76
2024/02/01 13:04:34;;;;;;;41.55;5.20;;;9.70;82.40;;;;;;9171638;19;20018;-76
2024/02/01 13:07:40;;;;;;;27.55;5.28;;;9.60;82.30;;;;;;9175903;19;20019;-76
2024/02/01 13:10:49;;;;;;;33.28;4.45;;;9.60;82.10;;;;;;9173812;19;20014;-75
2024/02/01 13:13:58;;;;;;;31.92;4.15;;;9.70;82.20;;;;;;9175605;19;20114;-76
2024/02/01 13:17:11;;;;;;;26.80;4.95;;;9.60;82.20;;;;;;9176852;19;20014;-76
2024/02/01 13:20:21;;;;;;;23.10;3.85;;;9.60;82.10;;;;;;9172628;19;20022;-76
2024/02/01 13:23:29;;;;;;;30.40;4.50;;;9.60;82.00;;;;;;9171305;19;20015;-77
2024/02/01 13:26:36;;;;;;;27.40;4.45;;;9.70;82.10;;;;;;9177365;19;20370;-75
2024/02/01 13:29:47;;;;;;;29.48;4.50;;;9.60;82.20;;;;;;9172174;19;20017;-75
2024/02/01 13:32:52;;;;;;;22.73;4.28;;;9.70;81.90;;;;;;9173060;19;20011;-75
2024/02/01 13:36:00;;;;;;;31.92;3.80;;;10.20;82.40;;;;;;9173575;19;20364;-77
2024/02/01 13:39:09;;;;;;;35.10;5.78;;;9.70;82.00;;;;;;9174741;19;20022;-77
2024/02/01 13:42:16;;;;;;;26.98;4.75;;;9.80;81.90;;;;;;9175164;19;20041;-77
2024/02/01 13:45:25;;;;;;;31.27;4.47;;;9.70;82.00;;;;;;9174423;19;20049;-77
2024/02/01 13:48:32;;;;;;;38.38;5.43;;;9.80;81.80;;;;;;9173840;19;20015;-77
2024/02/01 13:51:41;;;;;;;27.65;4.88;;;9.80;81.80;;;;;;9175230;19;20540;-71
2024/02/01 13:54:49;;;;;;;24.20;4.25;;;10.00;81.90;;;;;;9173430;19;20712;-75
2024/02/01 13:57:55;;;;;;;33.65;4.22;;;9.90;81.70;;;;;;9172234;19;20022;-74
2024/02/01 14:01:06;;;;;;;36.15;4.00;;;9.90;81.60;;;;;;9173287;19;20014;-74
2024/02/01 14:04:11;;;;;;;31.85;4.57;;;9.90;81.50;;;;;;9173891;19;20022;-74
2024/02/01 14:07:19;;;;;;;32.10;4.22;;;9.90;81.40;;;;;;9172815;19;20022;-74
2024/02/01 14:10:25;;;;;;;43.15;5.18;;;10.00;81.40;;;;;;9174570;19;20022;-74
2024/02/01 14:13:35;;;;;;;29.50;4.38;;;9.90;81.40;;;;;;9172910;19;20010;-75
2024/02/01 14:16:43;;;;;;;28.50;4.40;;;10.00;81.50;;;;;;9175069;19;20437;-75
2024/02/01 14:19:51;;;;;;;33.03;5.25;;;9.90;81.40;;;;;;9173359;19;20006;-75
2024/02/01 14:22:56;;;;;;;36.40;5.57;;;9.90;81.40;;;;;;9171940;19;20021;-74
2024/02/01 14:26:05;;;;;;;28.48;5.72;;;9.90;81.30;;;;;;9173339;19;20483;-74
2024/02/01 14:29:11;;;;;;;27.08;5.68;;;9.90;81.90;;;;;;9174948;19;20623;-74
2024/02/01 14:32:21;;;;;;;24.70;3.03;;;9.90;81.40;;;;;;9172942;19;20384;-74
2024/02/01 14:35:27;;;;;;;31.85;4.40;;;10.00;81.20;;;;;;9173213;19;20759;-75
2024/02/01 14:38:34;;;;;;;28.70;3.58;;;10.00;81.20;;;;;;9172344;19;20042;-74
2024/02/01 14:41:40;;;;;;;26.55;4.18;;;9.90;81.00;;;;;;9173280;19;20033;-74
2024/02/01 14:44:47;;;;;;;28.88;4.50;;;9.90;80.90;;;;;;9170579;19;20015;-76
2024/02/01 14:47:55;;;;;;;28.58;4.35;;;9.90;81.00;;;;;;9175266;19;20488;-74
2024/02/01 14:51:03;;;;;;;33.10;3.97;;;9.80;80.70;;;;;;9173553;19;20019;-75
2024/02/01 14:54:09;;;;;;;21.05;3.60;;;10.00;80.90;;;;;;9174760;19;20014;-74
2024/02/01 14:57:18;;;;;;;12.73;2.80;;;9.80;80.60;;;;;;9170154;19;20018;-75
2024/02/01 15:00:28;;;;;;;31.15;4.30;;;9.70;80.80;;;;;;9169419;19;20947;-75
2024/02/01 15:03:38;;;;;;;26.88;4.13;;;9.70;80.50;;;;;;9170214;19;20021;-75
2024/02/01 15:06:44;;;;;;;33.58;4.10;;;9.70;80.60;;;;;;9169809;19;20052;-75
2024/02/01 15:09:53;;;;;;;29.33;4.72;;;9.70;80.70;;;;;;9169251;19;20041;-76
2024/02/01 15:12:59;;;;;;;27.08;3.28;;;9.60;81.10;;;;;;9167863;19;20029;-75
2024/02/01 15:16:08;;;;;;;23.00;3.95;;;9.50;80.50;;;;;;9169774;19;20111;-75
2024/02/01 15:19:21;;;;;;;21.92;3.88;;;9.50;80.50;;;;;;9170337;19;20756;-76
2024/02/01 15:22:29;;;;;;;34.70;5.35;;;9.50;80.60;;;;;;9170542;19;21107;-76
2024/02/01 15:25:40;;;;;;;22.67;3.35;;;9.50;80.60;;;;;;9182832;19;20011;-75
2024/02/01 15:28:49;;;;;;;36.27;5.07;;;9.50;80.60;;;;;;9177845;19;20018;-75
2024/02/01 15:31:55;;;;;;;31.05;5.05;;;8.70;80.30;;;;;;9179074;19;20492;-76
2024/02/01 15:35:09;;;;;;;26.90;4.25;;;9.30;80.60;;;;;;9178821;19;20014;-74
2024/02/01 15:38:15;;;;;;;29.15;5.50;;;9.30;80.50;;;;;;9181668;19;20058;-75
2024/02/01 15:41:23;;;;;;;24.20;3.65;;;9.30;80.50;;;;;;9179025;19;20350;-75
2024/02/01 15:44:28;;;;;;;30.48;5.43;;;9.30;80.80;;;;;;9181216;19;20018;-75
2024/02/01 15:47:39;;;;;;;34.72;5.30;;;9.10;80.70;;;;;;9179752;19;20018;-76
2024/02/01 15:50:55;;;;;;;41.67;4.90;;;9.10;80.80;;;;;;9180778;19;20029;-77
2024/02/01 15:54:03;;;;;;;36.75;4.28;;;9.10;80.90;;;;;;9180836;19;20022;-76
2024/02/01 15:57:10;;;;;;;17.67;3.90;;;9.00;80.70;;;;;;9180506;19;20022;-75
2024/02/01 16:00:19;;;;;;;26.67;4.30;;;8.90;80.60;;;;;;9180640;19;20018;-76
2024/02/01 16:03:26;;;;;;;26.33;4.05;;;8.90;80.60;;;;;;9180797;19;20018;-76
2024/02/01 16:06:36;;;;;;;23.45;4.20;;;9.00;80.60;;;;;;9178866;19;20472;-76
2024/02/01 16:09:45;;;;;;;33.00;4.78;;;8.80;80.60;;;;;;9180325;19;20396;-76
2024/02/01 16:12:55;;;;;;;27.30;5.22;;;8.80;80.60;;;;;;9178922;19;20022;-77
2024/02/01 16:16:01;;;;;;;36.53;5.57;;;8.70;80.50;;;;;;9180761;19;20018;-76
2024/02/01 16:19:22;;;;;;;26.55;5.68;;;8.70;80.70;;;;;;9180329;19;20377;-76
2024/02/01 16:22:49;;;;;;;27.13;5.15;;;8.70;80.50;;;;;;9173327;19;20480;-76
2024/02/01 16:26:01;;;;;;;33.00;4.50;;;8.70;80.60;;;;;;9178258;19;20120;-75
2024/02/01 16:29:11;;;;;;;30.55;5.13;;;8.60;80.60;;;;;;9179407;19;20456;-76
2024/02/01 16:32:26;;;;;;;28.80;4.47;;;8.50;81.30;;;;;;9177946;19;20115;-75
2024/02/01 16:35:48;;;;;;;32.40;6.15;;;8.50;80.70;;;;;;9178879;19;20086;-76
2024/02/01 16:39:04;;;;;;;24.25;4.00;;;8.50;80.80;;;;;;9175220;19;20781;-78
2024/02/01 16:42:17;;;;;;;;;;;8.50;80.70;;;;;;9177823;19;20013;-75
2024/02/01 16:45:25;;;;;;;31.58;4.90;;;8.40;80.90;;;;;;9178919;19;20314;-76
2024/02/01 16:48:33;;;;;;;24.50;4.68;;;8.30;80.90;;;;;;9179407;19;20010;-76
2024/02/01 16:51:42;;;;;;;30.10;5.35;;;8.30;80.90;;;;;;9177468;19;20033;-75
2024/02/01 16:54:50;;;;;;;19.08;4.55;;;8.20;80.80;;;;;;9177773;19;20015;-76
2024/02/01 16:57:58;;;;;;;27.17;5.90;;;8.30;80.90;;;;;;9177202;19;20021;-75
2024/02/01 17:01:07;;;;;;;22.80;4.72;;;8.10;80.90;;;;;;9176284;19;20672;-76
2024/02/01 17:04:19;;;;;;;26.27;4.68;;;8.10;80.90;;;;;;9178585;19;20074;-75
2024/02/01 17:07:25;;;;;;;28.40;4.75;;;8.10;81.00;;;;;;9177750;19;20121;-76